Metropolis, IL

4:20 PM CDT on May 24, 2017 (GMT -0500)
Metropolis

Weather History for KM30 - February, 2013

Change the Weather History Date:

Saturday, February 9, 2013

  Actual Average (KPAH) Record (KPAH)
Temperature  
Mean Temperature 40 °F -  
Max Temperature 47 °F 43 °F 72 °F (1965)
Min Temperature 32 °F 22 °F -1 °F (1979)
Degree Days  
Heating Degree Days 26    
Moisture  
Dew Point 29 °F    
Average Humidity 67    
Maximum Humidity 81    
Minimum Humidity 50    
Precipitation  
Precipitation 0.00 in - - ()
Sea Level Pressure  
Sea Level Pressure 30.25 in    
Wind  
Wind Speed 5 mph (East)    
Max Wind Speed 9 mph    
Max Gust Speed -    
Visibility 10 miles    
Events      
Averages and records for this station are not official NWS values.
T = Trace of Precipitation, MM = Missing Value Source: NWS Daily Summary

Daily Weather History Graph

Daily Weather History Graph

Search for Another Location

Airport or City:

Trip Planner

Search our weather history database for the weather conditions in past years. The results will help you decide how hot, cold, wet, or windy it might be!

Date:

Astronomy

Feb. 09, 2013 Rise Set
Actual Time 6:50 AM CST 5:28 PM CST
Civil Twilight 6:23 AM CST 5:55 PM CST
Nautical Twilight 5:52 AM CST 6:26 PM CST
Astronomical Twilight 5:22 AM CST 6:56 PM CST
Moon 6:01 AM CST (2/9) 5:10 PM CST (2/9)
Length of Visible Light 11h 32m
Length of Day
10h 38m
Waning Crescent, 0% of the Moon is Illuminated
Feb 9
Waning Crescent
Feb 10
New
Feb 17
First Quarter
Feb 25
Full
Mar 4
Last Quarter

Hourly Weather History & Observations

Time (CST) Temp. Windchill Dew Point Humidity Pressure Visibility Wind Dir Wind Speed Gust Speed Precip Events Conditions
12:15 AM 33.8 °F 28.6 °F 27.5 °F 78% 30.35 in 10.0 mi NE 5.8 mph - N/A   Overcast
12:35 AM 33.8 °F 28.6 °F 27.9 °F 79% 30.35 in 10.0 mi East 5.8 mph - N/A   Overcast
12:55 AM 33.4 °F 29.1 °F 27.5 °F 79% 30.35 in 10.0 mi East 4.6 mph - N/A   Overcast
1:15 AM 33.1 °F 28.7 °F 27.5 °F 80% 30.35 in 10.0 mi ENE 4.6 mph - N/A   Overcast
1:35 AM 33.3 °F 30.2 °F 27.5 °F 79% 30.34 in 10.0 mi ENE 3.5 mph - N/A   Overcast
1:55 AM 32.9 °F 26.7 °F 27.5 °F 81% 30.34 in 10.0 mi East 6.9 mph - N/A   Overcast
2:15 AM 32.9 °F 25.9 °F 27.1 °F 79% 30.34 in 10.0 mi ENE 8.1 mph - N/A   Overcast
2:35 AM 32.9 °F 28.5 °F 27.5 °F 81% 30.34 in 10.0 mi ENE 4.6 mph - N/A   Overcast
2:55 AM 32.5 °F 27.1 °F 27.1 °F 80% 30.35 in 10.0 mi ENE 5.8 mph - N/A   Overcast
3:15 AM 32.5 °F 29.3 °F 27.3 °F 81% 30.35 in 10.0 mi ENE 3.5 mph - N/A   Overcast
3:35 AM 32.5 °F 28.1 °F 27.1 °F 80% 30.35 in 10.0 mi ENE 4.6 mph - N/A   Overcast
3:55 AM 32.5 °F 27.1 °F 27.1 °F 80% 30.34 in 10.0 mi NE 5.8 mph - N/A   Overcast
4:15 AM 32.5 °F 28.1 °F 26.8 °F 79% 30.35 in 10.0 mi East 4.6 mph - N/A   Overcast
4:35 AM 32.5 °F - 27.0 °F 80% 30.36 in 10.0 mi Calm Calm - N/A   Overcast
4:55 AM 32.4 °F 27.9 °F 26.6 °F 79% 30.36 in 10.0 mi East 4.6 mph - N/A   Overcast
5:15 AM 32.5 °F 29.3 °F 27.1 °F 80% 30.36 in 10.0 mi NE 3.5 mph - N/A   Overcast
5:35 AM 32.2 °F 26.7 °F 26.6 °F 80% 30.36 in 10.0 mi ENE 5.8 mph - N/A   Overcast
6:15 AM 32.4 °F 26.9 °F 26.6 °F 79% 30.36 in 10.0 mi ENE 5.8 mph - N/A   Overcast
6:35 AM 32.4 °F 29.1 °F 27.1 °F 81% 30.36 in 10.0 mi ENE 3.5 mph - N/A   Overcast
6:55 AM 32.4 °F 26.9 °F 27.1 °F 81% 30.36 in 10.0 mi East 5.8 mph - N/A   Overcast
7:15 AM 32.4 °F 26.0 °F 27.1 °F 81% 30.36 in 10.0 mi East 6.9 mph - N/A   Overcast
7:35 AM 32.4 °F 26.0 °F 26.8 °F 80% 30.36 in 10.0 mi East 6.9 mph - N/A   Overcast
7:55 AM 32.4 °F 25.3 °F 26.2 °F 78% 30.36 in 10.0 mi East 8.1 mph - N/A   Overcast
8:15 AM 32.7 °F 28.3 °F 26.4 °F 78% 30.37 in 10.0 mi East 4.6 mph - N/A   Overcast
8:35 AM 33.1 °F 30.0 °F 26.6 °F 77% 30.38 in 10.0 mi East 3.5 mph - N/A   Overcast
8:55 AM 33.4 °F 28.1 °F 27.1 °F 78% 30.38 in 10.0 mi ESE 5.8 mph - N/A   Overcast
9:15 AM 34.5 °F 27.9 °F 27.1 °F 74% 30.37 in 10.0 mi ESE 8.1 mph - N/A   Mostly Cloudy
9:35 AM 35.6 °F 29.2 °F 27.9 °F 73% 30.36 in 10.0 mi ESE 8.1 mph - N/A   Scattered Clouds
9:55 AM 35.6 °F 29.9 °F 27.7 °F 73% 30.35 in 10.0 mi East 6.9 mph - N/A   Scattered Clouds
10:15 AM 36.9 °F 32.2 °F 28.2 °F 71% 30.36 in 10.0 mi East 5.8 mph - N/A   Clear
10:35 AM 38.3 °F 32.5 °F 28.6 °F 68% 30.34 in 10.0 mi East 8.1 mph - N/A   Clear
10:55 AM 39.2 °F 33.0 °F 29.1 °F 67% 30.34 in 10.0 mi East 9.2 mph - N/A   Clear
11:15 AM 40.5 °F 35.8 °F 29.5 °F 65% 30.33 in 10.0 mi ENE 6.9 mph - N/A   Clear
11:35 AM 41.4 °F 37.6 °F 29.7 °F 63% 30.31 in 10.0 mi ESE 5.8 mph - N/A   Clear
11:55 AM 41.5 °F 37.1 °F 29.8 °F 63% 30.30 in 10.0 mi East 6.9 mph - N/A   Clear
12:15 PM 43.2 °F 40.5 °F 29.8 °F 59% 30.28 in 10.0 mi SSE 4.6 mph - N/A   Clear
12:35 PM 44.1 °F 40.8 °F 29.3 °F 56% 30.28 in 10.0 mi South 5.8 mph - N/A   Clear
12:55 PM 45.1 °F 40.8 °F 29.7 °F 55% 30.26 in 10.0 mi SSE 8.1 mph - N/A   Clear
1:15 PM 45.7 °F 44.4 °F 28.9 °F 52% 30.26 in 10.0 mi ESE 3.5 mph - N/A   Clear
1:35 PM 45.9 °F 42.9 °F 28.9 °F 52% 30.25 in 10.0 mi East 5.8 mph - N/A   Clear
1:55 PM 45.9 °F - 29.1 °F 52% 30.23 in 10.0 mi Calm Calm - N/A   Clear
2:15 PM 46.4 °F - 29.1 °F 51% 30.23 in 10.0 mi Calm Calm - N/A   Clear
2:35 PM 46.9 °F - 29.1 °F 50% 30.22 in 10.0 mi Calm Calm - N/A   Clear
2:55 PM 47.7 °F - 30.2 °F 51% 30.22 in 10.0 mi East 3.5 mph - N/A   Clear
3:15 PM 47.8 °F - 30.0 °F 50% 30.21 in 10.0 mi East 5.8 mph - N/A   Clear
3:35 PM 47.8 °F - 30.0 °F 50% 30.19 in 10.0 mi East 8.1 mph - N/A   Clear
3:55 PM 47.3 °F - 30.0 °F 51% 30.18 in 10.0 mi East 8.1 mph - N/A   Clear
4:15 PM 47.3 °F - 30.0 °F 51% 30.18 in 10.0 mi East 4.6 mph - N/A   Clear
4:35 PM 47.3 °F - 29.3 °F 50% 30.18 in 10.0 mi East 4.6 mph - N/A   Clear
4:55 PM 46.6 °F - 29.5 °F 51% 30.17 in 10.0 mi East 3.5 mph - N/A   Clear
5:15 PM 45.9 °F 43.6 °F 29.5 °F 53% 30.16 in 10.0 mi East 4.6 mph - N/A   Clear
5:35 PM 44.6 °F 43.1 °F 29.7 °F 56% 30.16 in 10.0 mi East 3.5 mph - N/A   Clear
5:55 PM 44.4 °F 42.0 °F 30.0 °F 57% 30.15 in 10.0 mi ESE 4.6 mph - N/A   Clear
6:15 PM 43.3 °F 41.7 °F 30.2 °F 60% 30.14 in 10.0 mi East 3.5 mph - N/A   Clear
6:35 PM 42.4 °F 40.7 °F 30.4 °F 62% 30.14 in 10.0 mi East 3.5 mph - N/A   Clear
6:55 PM 43.0 °F 41.3 °F 31.3 °F 63% 30.13 in 10.0 mi ESE 3.5 mph - N/A   Clear
7:15 PM 43.9 °F 40.5 °F 31.6 °F 62% 30.13 in 10.0 mi East 5.8 mph - N/A   Clear
7:35 PM 44.2 °F 40.3 °F 32.0 °F 62% 30.12 in 10.0 mi East 6.9 mph - N/A   Clear
7:55 PM 44.6 °F 41.4 °F 32.0 °F 61% 30.13 in 10.0 mi ESE 5.8 mph - N/A   Clear
8:15 PM 44.8 °F 42.4 °F 32.0 °F 61% 30.12 in 10.0 mi East 4.6 mph - N/A   Scattered Clouds
8:35 PM 44.6 °F 42.2 °F 32.0 °F 61% 30.12 in 10.0 mi East 4.6 mph - N/A   Scattered Clouds
8:55 PM 44.6 °F 43.1 °F 32.0 °F 61% 30.12 in 10.0 mi ESE 3.5 mph - N/A   Scattered Clouds
9:15 PM 44.8 °F - 32.2 °F 61% 30.12 in 10.0 mi Calm Calm - N/A   Clear
9:35 PM 45.0 °F - 32.4 °F 61% 30.11 in 10.0 mi Calm Calm - N/A   Mostly Cloudy
9:55 PM 44.8 °F - 32.7 °F 63% 30.10 in 10.0 mi Calm Calm - N/A   Overcast
10:15 PM 45.1 °F 43.7 °F 33.1 °F 63% 30.09 in 10.0 mi East 3.5 mph - N/A   Light Drizzle
10:35 PM 45.9 °F 43.6 °F 32.2 °F 59% 30.09 in 10.0 mi ESE 4.6 mph - N/A   Overcast
10:55 PM 46.0 °F 44.8 °F 32.0 °F 58% 30.09 in 10.0 mi East 3.5 mph - N/A   Overcast
11:15 PM 46.6 °F - 32.0 °F 57% 30.08 in 10.0 mi ESE 3.5 mph - N/A   Overcast
11:35 PM 46.6 °F - 32.0 °F 57% 30.08 in 10.0 mi ESE 4.6 mph - N/A   Mostly Cloudy
11:55 PM 45.9 °F 44.6 °F 32.0 °F 58% 30.06 in 10.0 mi East 3.5 mph - N/A   Scattered Clouds